sensor_id;sensor_type;location;lat;lon;timestamp;temperature;humidity
35457;DHT22;21575;51.538;-0.084;2022-10-31T00:13:29;13.40;99.90
35457;DHT22;21575;51.538;-0.084;2022-10-31T00:15:59;13.30;99.90
35457;DHT22;21575;51.538;-0.084;2022-10-31T00:18:24;13.30;99.90
35457;DHT22;21575;51.538;-0.084;2022-10-31T00:21:01;13.30;99.90
35457;DHT22;21575;51.538;-0.084;2022-10-31T00:23:26;13.30;99.90
35457;DHT22;21575;51.538;-0.084;2022-10-31T00:25:52;13.30;99.90
35457;DHT22;21575;51.538;-0.084;2022-10-31T00:28:18;13.30;99.90
35457;DHT22;21575;51.538;-0.084;2022-10-31T00:30:43;13.30;99.90
35457;DHT22;21575;51.538;-0.084;2022-10-31T00:33:09;13.30;99.90
35457;DHT22;21575;51.538;-0.084;2022-10-31T00:35:34;13.30;99.90
35457;DHT22;21575;51.538;-0.084;2022-10-31T00:38:00;13.30;99.90
35457;DHT22;21575;51.538;-0.084;2022-10-31T00:40:25;13.40;99.90
35457;DHT22;21575;51.538;-0.084;2022-10-31T00:42:51;13.40;99.90
35457;DHT22;21575;51.538;-0.084;2022-10-31T00:45:17;13.40;99.90
35457;DHT22;21575;51.538;-0.084;2022-10-31T00:47:42;13.40;99.90
35457;DHT22;21575;51.538;-0.084;2022-10-31T00:50:08;13.40;99.90
35457;DHT22;21575;51.538;-0.084;2022-10-31T00:52:34;13.40;99.90
35457;DHT22;21575;51.538;-0.084;2022-10-31T00:55:00;13.40;99.90
35457;DHT22;21575;51.538;-0.084;2022-10-31T00:57:25;13.40;99.90
35457;DHT22;21575;51.538;-0.084;2022-10-31T00:59:51;13.40;99.90
35457;DHT22;21575;51.538;-0.084;2022-10-31T01:02:17;13.40;99.90
35457;DHT22;21575;51.538;-0.084;2022-10-31T01:04:42;13.50;99.90
35457;DHT22;21575;51.538;-0.084;2022-10-31T01:07:09;13.40;99.90
35457;DHT22;21575;51.538;-0.084;2022-10-31T01:09:37;13.40;99.90
35457;DHT22;21575;51.538;-0.084;2022-10-31T01:12:03;13.50;99.90
35457;DHT22;21575;51.538;-0.084;2022-10-31T01:14:29;13.50;99.90
35457;DHT22;21575;51.538;-0.084;2022-10-31T01:16:54;13.50;99.90
35457;DHT22;21575;51.538;-0.084;2022-10-31T01:19:20;13.50;99.90
35457;DHT22;21575;51.538;-0.084;2022-10-31T01:21:45;13.40;99.90
35457;DHT22;21575;51.538;-0.084;2022-10-31T01:24:11;13.50;99.90
35457;DHT22;21575;51.538;-0.084;2022-10-31T01:26:37;13.50;99.90
35457;DHT22;21575;51.538;-0.084;2022-10-31T01:29:06;13.50;99.90
35457;DHT22;21575;51.538;-0.084;2022-10-31T01:31:34;13.40;99.90
35457;DHT22;21575;51.538;-0.084;2022-10-31T01:34:01;13.50;99.90
35457;DHT22;21575;51.538;-0.084;2022-10-31T01:36:35;13.40;99.90
35457;DHT22;21575;51.538;-0.084;2022-10-31T01:39:05;13.50;99.90
35457;DHT22;21575;51.538;-0.084;2022-10-31T01:41:34;13.50;99.90
35457;DHT22;21575;51.538;-0.084;2022-10-31T01:44:02;13.50;99.90
35457;DHT22;21575;51.538;-0.084;2022-10-31T01:46:37;13.50;99.90
35457;DHT22;21575;51.538;-0.084;2022-10-31T01:49:12;13.50;99.90
35457;DHT22;21575;51.538;-0.084;2022-10-31T01:51:42;13.50;99.90
35457;DHT22;21575;51.538;-0.084;2022-10-31T01:54:12;13.50;99.90
35457;DHT22;21575;51.538;-0.084;2022-10-31T01:56:42;13.50;99.90
35457;DHT22;21575;51.538;-0.084;2022-10-31T01:59:12;13.50;99.90
35457;DHT22;21575;51.538;-0.084;2022-10-31T02:01:40;13.50;99.90
35457;DHT22;21575;51.538;-0.084;2022-10-31T02:04:06;13.50;99.90
35457;DHT22;21575;51.538;-0.084;2022-10-31T02:06:41;13.50;99.90
35457;DHT22;21575;51.538;-0.084;2022-10-31T02:09:08;13.50;99.90
35457;DHT22;21575;51.538;-0.084;2022-10-31T02:11:35;13.50;99.90
35457;DHT22;21575;51.538;-0.084;2022-10-31T02:14:02;13.50;99.90
35457;DHT22;21575;51.538;-0.084;2022-10-31T02:16:28;13.50;99.90
35457;DHT22;21575;51.538;-0.084;2022-10-31T02:18:54;13.60;99.90
35457;DHT22;21575;51.538;-0.084;2022-10-31T02:24:15;13.50;99.90
35457;DHT22;21575;51.538;-0.084;2022-10-31T02:26:52;13.60;99.90
35457;DHT22;21575;51.538;-0.084;2022-10-31T02:37:35;13.60;99.90
35457;DHT22;21575;51.538;-0.084;2022-10-31T02:43:15;13.60;99.90
35457;DHT22;21575;51.538;-0.084;2022-10-31T02:46:08;13.70;99.90
35457;DHT22;21575;51.538;-0.084;2022-10-31T02:48:40;13.60;99.90
35457;DHT22;21575;51.538;-0.084;2022-10-31T02:51:08;13.70;99.90
35457;DHT22;21575;51.538;-0.084;2022-10-31T02:53:36;13.70;99.90
35457;DHT22;21575;51.538;-0.084;2022-10-31T02:56:12;13.60;99.90
35457;DHT22;21575;51.538;-0.084;2022-10-31T03:02:05;13.60;99.90
35457;DHT22;21575;51.538;-0.084;2022-10-31T03:15:50;13.50;99.90
35457;DHT22;21575;51.538;-0.084;2022-10-31T03:18:26;13.50;99.90
35457;DHT22;21575;51.538;-0.084;2022-10-31T03:21:04;13.50;99.90
35457;DHT22;21575;51.538;-0.084;2022-10-31T03:23:32;13.60;99.90
35457;DHT22;21575;51.538;-0.084;2022-10-31T03:26:03;13.60;99.90
35457;DHT22;21575;51.538;-0.084;2022-10-31T03:28:43;13.60;99.90
35457;DHT22;21575;51.538;-0.084;2022-10-31T03:31:10;13.60;99.90
35457;DHT22;21575;51.538;-0.084;2022-10-31T03:33:41;13.60;99.90
35457;DHT22;21575;51.538;-0.084;2022-10-31T03:36:09;13.60;99.90
35457;DHT22;21575;51.538;-0.084;2022-10-31T03:38:36;13.60;99.90
35457;DHT22;21575;51.538;-0.084;2022-10-31T03:41:03;13.60;99.90
35457;DHT22;21575;51.538;-0.084;2022-10-31T03:43:34;13.60;99.90
35457;DHT22;21575;51.538;-0.084;2022-10-31T03:46:03;13.60;99.90
35457;DHT22;21575;51.538;-0.084;2022-10-31T03:48:29;13.60;99.90
35457;DHT22;21575;51.538;-0.084;2022-10-31T03:56:32;13.60;99.90
35457;DHT22;21575;51.538;-0.084;2022-10-31T03:59:26;13.60;99.90
35457;DHT22;21575;51.538;-0.084;2022-10-31T04:01:53;13.60;99.90
35457;DHT22;21575;51.538;-0.084;2022-10-31T04:04:20;13.50;99.90
35457;DHT22;21575;51.538;-0.084;2022-10-31T04:06:47;13.50;99.90
35457;DHT22;21575;51.538;-0.084;2022-10-31T04:09:14;13.50;99.90
35457;DHT22;21575;51.538;-0.084;2022-10-31T04:11:51;13.50;99.90
35457;DHT22;21575;51.538;-0.084;2022-10-31T04:14:18;13.50;99.90
35457;DHT22;21575;51.538;-0.084;2022-10-31T04:16:44;13.50;99.90
35457;DHT22;21575;51.538;-0.084;2022-10-31T04:19:11;13.50;99.90
35457;DHT22;21575;51.538;-0.084;2022-10-31T04:21:37;13.50;99.90
35457;DHT22;21575;51.538;-0.084;2022-10-31T04:24:03;13.40;99.90
35457;DHT22;21575;51.538;-0.084;2022-10-31T04:26:29;13.40;99.90
35457;DHT22;21575;51.538;-0.084;2022-10-31T04:28:55;13.40;99.90
35457;DHT22;21575;51.538;-0.084;2022-10-31T04:31:20;13.40;99.90
35457;DHT22;21575;51.538;-0.084;2022-10-31T04:33:46;13.30;99.90
35457;DHT22;21575;51.538;-0.084;2022-10-31T04:36:11;13.40;99.90
35457;DHT22;21575;51.538;-0.084;2022-10-31T04:38:37;13.30;99.90
35457;DHT22;21575;51.538;-0.084;2022-10-31T04:41:03;13.30;99.90
35457;DHT22;21575;51.538;-0.084;2022-10-31T04:43:29;13.30;99.90
35457;DHT22;21575;51.538;-0.084;2022-10-31T04:45:54;13.30;99.90
35457;DHT22;21575;51.538;-0.084;2022-10-31T04:48:20;13.30;99.90
35457;DHT22;21575;51.538;-0.084;2022-10-31T04:50:45;13.30;99.90
35457;DHT22;21575;51.538;-0.084;2022-10-31T04:53:11;13.30;99.90
35457;DHT22;21575;51.538;-0.084;2022-10-31T04:55:37;13.30;99.90
35457;DHT22;21575;51.538;-0.084;2022-10-31T04:58:02;13.30;99.90
35457;DHT22;21575;51.538;-0.084;2022-10-31T05:00:28;13.30;99.90
35457;DHT22;21575;51.538;-0.084;2022-10-31T05:02:55;13.30;99.90
35457;DHT22;21575;51.538;-0.084;2022-10-31T05:05:28;13.30;99.90
35457;DHT22;21575;51.538;-0.084;2022-10-31T05:07:55;13.30;99.90
35457;DHT22;21575;51.538;-0.084;2022-10-31T05:10:26;13.30;99.90
35457;DHT22;21575;51.538;-0.084;2022-10-31T05:12:56;13.30;99.90
35457;DHT22;21575;51.538;-0.084;2022-10-31T05:15:23;13.30;99.90
35457;DHT22;21575;51.538;-0.084;2022-10-31T05:17:50;13.30;99.90
35457;DHT22;21575;51.538;-0.084;2022-10-31T05:20:17;13.30;99.90
35457;DHT22;21575;51.538;-0.084;2022-10-31T05:22:47;13.20;99.90
35457;DHT22;21575;51.538;-0.084;2022-10-31T05:25:13;13.20;99.90
35457;DHT22;21575;51.538;-0.084;2022-10-31T05:27:43;13.20;99.90
35457;DHT22;21575;51.538;-0.084;2022-10-31T05:30:10;13.20;99.90
35457;DHT22;21575;51.538;-0.084;2022-10-31T05:32:46;13.20;99.90
35457;DHT22;21575;51.538;-0.084;2022-10-31T05:35:21;13.20;99.90
35457;DHT22;21575;51.538;-0.084;2022-10-31T05:37:47;13.10;99.90
35457;DHT22;21575;51.538;-0.084;2022-10-31T05:40:15;13.10;99.90
35457;DHT22;21575;51.538;-0.084;2022-10-31T05:42:41;13.10;99.90
35457;DHT22;21575;51.538;-0.084;2022-10-31T05:45:09;13.00;99.90
35457;DHT22;21575;51.538;-0.084;2022-10-31T05:47:35;13.00;99.90
35457;DHT22;21575;51.538;-0.084;2022-10-31T05:50:01;13.00;99.90
35457;DHT22;21575;51.538;-0.084;2022-10-31T05:52:26;13.10;99.90
35457;DHT22;21575;51.538;-0.084;2022-10-31T05:54:52;13.00;99.90
35457;DHT22;21575;51.538;-0.084;2022-10-31T05:57:17;13.00;99.90
35457;DHT22;21575;51.538;-0.084;2022-10-31T05:59:43;13.00;99.90
35457;DHT22;21575;51.538;-0.084;2022-10-31T06:02:09;13.00;99.90
35457;DHT22;21575;51.538;-0.084;2022-10-31T06:04:34;13.00;99.90
35457;DHT22;21575;51.538;-0.084;2022-10-31T06:07:02;13.00;99.90
35457;DHT22;21575;51.538;-0.084;2022-10-31T06:09:28;12.90;99.90
35457;DHT22;21575;51.538;-0.084;2022-10-31T06:11:54;13.00;99.90
35457;DHT22;21575;51.538;-0.084;2022-10-31T06:14:19;12.90;99.90
35457;DHT22;21575;51.538;-0.084;2022-10-31T06:16:45;12.90;99.90
35457;DHT22;21575;51.538;-0.084;2022-10-31T06:19:11;12.90;99.90
35457;DHT22;21575;51.538;-0.084;2022-10-31T06:21:36;12.90;99.90
35457;DHT22;21575;51.538;-0.084;2022-10-31T06:24:02;12.90;99.90
35457;DHT22;21575;51.538;-0.084;2022-10-31T06:26:27;12.90;99.90
35457;DHT22;21575;51.538;-0.084;2022-10-31T06:28:53;12.90;99.90
35457;DHT22;21575;51.538;-0.084;2022-10-31T06:31:19;12.90;99.90
35457;DHT22;21575;51.538;-0.084;2022-10-31T06:33:44;12.90;99.90
35457;DHT22;21575;51.538;-0.084;2022-10-31T06:36:10;12.80;99.90
35457;DHT22;21575;51.538;-0.084;2022-10-31T06:38:36;12.80;99.90
35457;DHT22;21575;51.538;-0.084;2022-10-31T06:41:03;12.80;99.90
35457;DHT22;21575;51.538;-0.084;2022-10-31T06:43:29;12.80;99.90
35457;DHT22;21575;51.538;-0.084;2022-10-31T06:45:55;12.80;99.90
35457;DHT22;21575;51.538;-0.084;2022-10-31T06:48:21;12.80;99.90
35457;DHT22;21575;51.538;-0.084;2022-10-31T06:50:46;12.80;99.90
35457;DHT22;21575;51.538;-0.084;2022-10-31T06:53:12;12.80;99.90
35457;DHT22;21575;51.538;-0.084;2022-10-31T06:55:40;12.80;99.90
35457;DHT22;21575;51.538;-0.084;2022-10-31T06:58:05;12.80;99.90
35457;DHT22;21575;51.538;-0.084;2022-10-31T07:00:31;12.70;99.90
35457;DHT22;21575;51.538;-0.084;2022-10-31T07:05:23;12.70;99.90
35457;DHT22;21575;51.538;-0.084;2022-10-31T07:07:59;12.70;99.90
35457;DHT22;21575;51.538;-0.084;2022-10-31T07:10:27;12.70;99.90
35457;DHT22;21575;51.538;-0.084;2022-10-31T07:12:58;12.70;99.90
35457;DHT22;21575;51.538;-0.084;2022-10-31T07:15:25;12.70;99.90
35457;DHT22;21575;51.538;-0.084;2022-10-31T07:17:51;12.70;99.90
35457;DHT22;21575;51.538;-0.084;2022-10-31T07:20:16;12.70;99.90
35457;DHT22;21575;51.538;-0.084;2022-10-31T07:22:42;12.70;99.90
35457;DHT22;21575;51.538;-0.084;2022-10-31T07:25:08;12.70;99.90
35457;DHT22;21575;51.538;-0.084;2022-10-31T07:27:42;12.70;99.90
35457;DHT22;21575;51.538;-0.084;2022-10-31T07:30:09;12.80;99.90
35457;DHT22;21575;51.538;-0.084;2022-10-31T07:32:43;12.80;99.90
35457;DHT22;21575;51.538;-0.084;2022-10-31T07:35:12;12.80;99.90
35457;DHT22;21575;51.538;-0.084;2022-10-31T07:37:38;12.80;99.90
35457;DHT22;21575;51.538;-0.084;2022-10-31T07:40:05;12.80;99.90
35457;DHT22;21575;51.538;-0.084;2022-10-31T07:42:51;12.90;99.90
35457;DHT22;21575;51.538;-0.084;2022-10-31T07:45:18;12.90;99.90
35457;DHT22;21575;51.538;-0.084;2022-10-31T07:47:49;12.90;99.90
35457;DHT22;21575;51.538;-0.084;2022-10-31T07:50:20;13.00;99.90
35457;DHT22;21575;51.538;-0.084;2022-10-31T07:52:46;13.00;99.90
35457;DHT22;21575;51.538;-0.084;2022-10-31T07:55:13;13.10;99.90
35457;DHT22;21575;51.538;-0.084;2022-10-31T07:57:39;13.10;99.90
35457;DHT22;21575;51.538;-0.084;2022-10-31T08:00:06;13.20;99.90
35457;DHT22;21575;51.538;-0.084;2022-10-31T08:02:32;13.20;99.90
35457;DHT22;21575;51.538;-0.084;2022-10-31T08:04:58;13.30;99.90
35457;DHT22;21575;51.538;-0.084;2022-10-31T08:07:25;13.30;99.90
35457;DHT22;21575;51.538;-0.084;2022-10-31T08:09:51;13.40;99.90
35457;DHT22;21575;51.538;-0.084;2022-10-31T08:12:16;13.40;99.90
35457;DHT22;21575;51.538;-0.084;2022-10-31T08:14:42;13.40;99.90
35457;DHT22;21575;51.538;-0.084;2022-10-31T08:17:08;13.50;99.90
35457;DHT22;21575;51.538;-0.084;2022-10-31T08:19:33;13.50;99.90
35457;DHT22;21575;51.538;-0.084;2022-10-31T08:21:59;13.60;99.90
35457;DHT22;21575;51.538;-0.084;2022-10-31T08:24:25;13.60;99.90
35457;DHT22;21575;51.538;-0.084;2022-10-31T08:26:51;13.70;99.90
35457;DHT22;21575;51.538;-0.084;2022-10-31T08:29:17;13.80;99.90
35457;DHT22;21575;51.538;-0.084;2022-10-31T08:31:43;13.80;99.90
35457;DHT22;21575;51.538;-0.084;2022-10-31T08:34:09;13.80;99.90
35457;DHT22;21575;51.538;-0.084;2022-10-31T08:36:34;13.90;99.90
35457;DHT22;21575;51.538;-0.084;2022-10-31T08:39:00;13.90;99.90
35457;DHT22;21575;51.538;-0.084;2022-10-31T08:41:26;14.00;99.90
35457;DHT22;21575;51.538;-0.084;2022-10-31T08:43:51;14.10;99.90
35457;DHT22;21575;51.538;-0.084;2022-10-31T08:46:17;14.20;99.90
35457;DHT22;21575;51.538;-0.084;2022-10-31T08:48:43;14.20;99.90
35457;DHT22;21575;51.538;-0.084;2022-10-31T08:51:09;14.30;99.90
35457;DHT22;21575;51.538;-0.084;2022-10-31T08:53:35;14.30;99.90
35457;DHT22;21575;51.538;-0.084;2022-10-31T08:56:01;14.40;99.90
35457;DHT22;21575;51.538;-0.084;2022-10-31T08:58:27;14.50;99.90
35457;DHT22;21575;51.538;-0.084;2022-10-31T09:00:54;14.50;99.90
35457;DHT22;21575;51.538;-0.084;2022-10-31T09:03:27;14.60;99.90
35457;DHT22;21575;51.538;-0.084;2022-10-31T09:06:02;14.70;99.90
35457;DHT22;21575;51.538;-0.084;2022-10-31T09:08:31;14.70;99.90
35457;DHT22;21575;51.538;-0.084;2022-10-31T09:10:57;14.80;99.90
35457;DHT22;21575;51.538;-0.084;2022-10-31T09:13:23;14.80;99.90
35457;DHT22;21575;51.538;-0.084;2022-10-31T09:15:50;14.90;99.90
35457;DHT22;21575;51.538;-0.084;2022-10-31T09:18:18;14.90;99.90
35457;DHT22;21575;51.538;-0.084;2022-10-31T09:20:45;15.00;99.90
35457;DHT22;21575;51.538;-0.084;2022-10-31T09:23:15;15.10;99.90
35457;DHT22;21575;51.538;-0.084;2022-10-31T09:25:42;15.20;99.90
35457;DHT22;21575;51.538;-0.084;2022-10-31T09:28:11;15.20;99.90
35457;DHT22;21575;51.538;-0.084;2022-10-31T09:30:36;15.30;99.90
35457;DHT22;21575;51.538;-0.084;2022-10-31T09:33:06;15.40;99.90
35457;DHT22;21575;51.538;-0.084;2022-10-31T09:35:32;15.40;99.90
35457;DHT22;21575;51.538;-0.084;2022-10-31T09:37:59;15.50;99.90
35457;DHT22;21575;51.538;-0.084;2022-10-31T09:40:31;15.50;99.90
35457;DHT22;21575;51.538;-0.084;2022-10-31T09:48:14;15.70;99.90
35457;DHT22;21575;51.538;-0.084;2022-10-31T09:50:56;15.80;99.90
35457;DHT22;21575;51.538;-0.084;2022-10-31T09:56:04;16.00;99.90
35457;DHT22;21575;51.538;-0.084;2022-10-31T09:58:44;16.00;99.90
35457;DHT22;21575;51.538;-0.084;2022-10-31T10:03:55;16.10;99.90
35457;DHT22;21575;51.538;-0.084;2022-10-31T10:06:28;16.20;99.90
35457;DHT22;21575;51.538;-0.084;2022-10-31T10:08:55;16.20;99.90
35457;DHT22;21575;51.538;-0.084;2022-10-31T10:11:51;16.30;99.90
35457;DHT22;21575;51.538;-0.084;2022-10-31T10:18:02;16.30;99.90
35457;DHT22;21575;51.538;-0.084;2022-10-31T10:26:40;16.50;99.90
35457;DHT22;21575;51.538;-0.084;2022-10-31T10:28:54;16.50;99.90
35457;DHT22;21575;51.538;-0.084;2022-10-31T10:31:26;16.50;99.90
35457;DHT22;21575;51.538;-0.084;2022-10-31T10:36:35;16.50;99.90
35457;DHT22;21575;51.538;-0.084;2022-10-31T10:39:18;16.60;99.90
35457;DHT22;21575;51.538;-0.084;2022-10-31T10:41:47;16.60;99.90
35457;DHT22;21575;51.538;-0.084;2022-10-31T10:44:33;16.60;99.90
35457;DHT22;21575;51.538;-0.084;2022-10-31T10:47:17;16.60;99.90
35457;DHT22;21575;51.538;-0.084;2022-10-31T10:50:09;16.70;99.90
35457;DHT22;21575;51.538;-0.084;2022-10-31T10:52:59;16.70;99.90
35457;DHT22;21575;51.538;-0.084;2022-10-31T10:55:33;16.80;99.90
35457;DHT22;21575;51.538;-0.084;2022-10-31T10:58:07;16.90;99.90
35457;DHT22;21575;51.538;-0.084;2022-10-31T11:00:41;17.00;99.90
35457;DHT22;21575;51.538;-0.084;2022-10-31T11:03:06;17.10;99.90
35457;DHT22;21575;51.538;-0.084;2022-10-31T11:05:50;17.10;99.90
35457;DHT22;21575;51.538;-0.084;2022-10-31T11:08:29;17.20;99.90
35457;DHT22;21575;51.538;-0.084;2022-10-31T11:13:25;17.40;99.90
35457;DHT22;21575;51.538;-0.084;2022-10-31T11:18:31;17.70;99.90
35457;DHT22;21575;51.538;-0.084;2022-10-31T11:21:00;17.80;99.90
35457;DHT22;21575;51.538;-0.084;2022-10-31T11:23:27;17.80;99.90
35457;DHT22;21575;51.538;-0.084;2022-10-31T11:26:05;17.80;99.90
35457;DHT22;21575;51.538;-0.084;2022-10-31T11:28:32;17.80;99.90
35457;DHT22;21575;51.538;-0.084;2022-10-31T11:31:05;17.80;99.90
35457;DHT22;21575;51.538;-0.084;2022-10-31T11:33:36;17.80;99.90
35457;DHT22;21575;51.538;-0.084;2022-10-31T11:36:24;17.80;99.90
35457;DHT22;21575;51.538;-0.084;2022-10-31T11:38:51;17.80;99.90
35457;DHT22;21575;51.538;-0.084;2022-10-31T11:41:28;17.80;99.90
35457;DHT22;21575;51.538;-0.084;2022-10-31T11:46:41;17.90;99.90
35457;DHT22;21575;51.538;-0.084;2022-10-31T11:49:15;18.00;99.90
35457;DHT22;21575;51.538;-0.084;2022-10-31T11:51:42;18.10;99.90
35457;DHT22;21575;51.538;-0.084;2022-10-31T11:54:28;18.10;99.90
35457;DHT22;21575;51.538;-0.084;2022-10-31T11:56:55;18.10;99.90
35457;DHT22;21575;51.538;-0.084;2022-10-31T12:01:50;18.10;99.90
35457;DHT22;21575;51.538;-0.084;2022-10-31T12:04:17;18.00;99.90
35457;DHT22;21575;51.538;-0.084;2022-10-31T12:06:44;18.00;99.90
35457;DHT22;21575;51.538;-0.084;2022-10-31T12:09:28;18.00;99.90
35457;DHT22;21575;51.538;-0.084;2022-10-31T12:21:00;18.20;99.90
35457;DHT22;21575;51.538;-0.084;2022-10-31T12:23:19;18.30;99.90
35457;DHT22;21575;51.538;-0.084;2022-10-31T12:28:58;18.40;99.90
35457;DHT22;21575;51.538;-0.084;2022-10-31T12:39:39;18.50;99.90
35457;DHT22;21575;51.538;-0.084;2022-10-31T12:52:54;18.00;99.90
35457;DHT22;21575;51.538;-0.084;2022-10-31T12:56:16;18.00;99.90
35457;DHT22;21575;51.538;-0.084;2022-10-31T12:59:01;17.90;99.90
35457;DHT22;21575;51.538;-0.084;2022-10-31T13:01:35;17.90;99.90
35457;DHT22;21575;51.538;-0.084;2022-10-31T13:06:50;18.00;99.90
35457;DHT22;21575;51.538;-0.084;2022-10-31T13:09:38;18.10;99.90
35457;DHT22;21575;51.538;-0.084;2022-10-31T13:12:11;18.10;99.90
35457;DHT22;21575;51.538;-0.084;2022-10-31T13:14:44;18.10;99.90
35457;DHT22;21575;51.538;-0.084;2022-10-31T13:17:35;18.10;99.90
35457;DHT22;21575;51.538;-0.084;2022-10-31T13:23:00;18.00;99.90
35457;DHT22;21575;51.538;-0.084;2022-10-31T13:25:33;18.00;99.90
35457;DHT22;21575;51.538;-0.084;2022-10-31T13:28:14;18.00;99.90
35457;DHT22;21575;51.538;-0.084;2022-10-31T13:30:41;18.00;99.90
35457;DHT22;21575;51.538;-0.084;2022-10-31T13:33:17;18.00;99.90
35457;DHT22;21575;51.538;-0.084;2022-10-31T13:38:54;18.00;99.90
35457;DHT22;21575;51.538;-0.084;2022-10-31T13:41:38;18.10;99.90
35457;DHT22;21575;51.538;-0.084;2022-10-31T13:44:11;18.10;99.90
35457;DHT22;21575;51.538;-0.084;2022-10-31T13:46:40;18.10;99.90
35457;DHT22;21575;51.538;-0.084;2022-10-31T13:52:25;18.00;99.90
35457;DHT22;21575;51.538;-0.084;2022-10-31T13:54:53;18.00;99.90
35457;DHT22;21575;51.538;-0.084;2022-10-31T13:57:38;17.90;99.90
35457;DHT22;21575;51.538;-0.084;2022-10-31T14:00:07;17.90;99.90
35457;DHT22;21575;51.538;-0.084;2022-10-31T14:02:56;17.90;99.90
35457;DHT22;21575;51.538;-0.084;2022-10-31T14:05:35;17.80;99.90
35457;DHT22;21575;51.538;-0.084;2022-10-31T14:08:05;17.80;99.90
35457;DHT22;21575;51.538;-0.084;2022-10-31T14:10:36;17.80;99.90
35457;DHT22;21575;51.538;-0.084;2022-10-31T14:13:13;17.80;99.90
35457;DHT22;21575;51.538;-0.084;2022-10-31T14:15:43;17.80;99.90
35457;DHT22;21575;51.538;-0.084;2022-10-31T14:18:23;17.70;99.90
35457;DHT22;21575;51.538;-0.084;2022-10-31T14:20:49;17.70;99.90
35457;DHT22;21575;51.538;-0.084;2022-10-31T14:28:43;17.50;99.90
35457;DHT22;21575;51.538;-0.084;2022-10-31T14:33:50;17.50;99.90
35457;DHT22;21575;51.538;-0.084;2022-10-31T14:36:42;17.40;99.90
35457;DHT22;21575;51.538;-0.084;2022-10-31T14:41:56;17.30;99.90
35457;DHT22;21575;51.538;-0.084;2022-10-31T14:47:42;17.30;99.90
35457;DHT22;21575;51.538;-0.084;2022-10-31T14:52:36;17.20;99.90
35457;DHT22;21575;51.538;-0.084;2022-10-31T14:55:06;17.20;99.90
35457;DHT22;21575;51.538;-0.084;2022-10-31T14:57:34;17.10;99.90
35457;DHT22;21575;51.538;-0.084;2022-10-31T15:00:05;17.10;99.90
35457;DHT22;21575;51.538;-0.084;2022-10-31T15:02:39;17.00;99.90
35457;DHT22;21575;51.538;-0.084;2022-10-31T15:05:09;17.00;99.90
35457;DHT22;21575;51.538;-0.084;2022-10-31T15:07:35;17.00;99.90
35457;DHT22;21575;51.538;-0.084;2022-10-31T15:10:15;17.00;99.90
35457;DHT22;21575;51.538;-0.084;2022-10-31T15:12:43;17.00;99.90
35457;DHT22;21575;51.538;-0.084;2022-10-31T15:15:17;17.00;99.90
35457;DHT22;21575;51.538;-0.084;2022-10-31T15:17:45;16.90;99.90
35457;DHT22;21575;51.538;-0.084;2022-10-31T15:20:20;16.80;99.90
35457;DHT22;21575;51.538;-0.084;2022-10-31T15:22:46;16.80;99.90
35457;DHT22;21575;51.538;-0.084;2022-10-31T15:25:18;16.80;99.90
35457;DHT22;21575;51.538;-0.084;2022-10-31T15:27:46;16.70;99.90
35457;DHT22;21575;51.538;-0.084;2022-10-31T15:30:27;16.70;99.90
35457;DHT22;21575;51.538;-0.084;2022-10-31T15:32:53;16.60;99.90
35457;DHT22;21575;51.538;-0.084;2022-10-31T15:35:25;16.60;99.90
35457;DHT22;21575;51.538;-0.084;2022-10-31T15:37:54;16.60;99.90
35457;DHT22;21575;51.538;-0.084;2022-10-31T15:40:23;16.60;99.90
35457;DHT22;21575;51.538;-0.084;2022-10-31T15:43:01;16.50;99.90
35457;DHT22;21575;51.538;-0.084;2022-10-31T15:45:29;16.40;99.90
35457;DHT22;21575;51.538;-0.084;2022-10-31T15:47:58;16.40;99.90
35457;DHT22;21575;51.538;-0.084;2022-10-31T15:50:40;16.40;99.90
35457;DHT22;21575;51.538;-0.084;2022-10-31T15:53:20;16.30;99.90
35457;DHT22;21575;51.538;-0.084;2022-10-31T15:55:58;16.30;99.90
35457;DHT22;21575;51.538;-0.084;2022-10-31T15:58:25;16.30;99.90
35457;DHT22;21575;51.538;-0.084;2022-10-31T16:01:00;16.20;99.90
35457;DHT22;21575;51.538;-0.084;2022-10-31T16:03:28;16.20;99.90
35457;DHT22;21575;51.538;-0.084;2022-10-31T16:05:57;16.20;99.90
35457;DHT22;21575;51.538;-0.084;2022-10-31T16:11:00;16.10;99.90
35457;DHT22;21575;51.538;-0.084;2022-10-31T16:13:30;16.10;99.90
35457;DHT22;21575;51.538;-0.084;2022-10-31T16:16:02;16.10;99.90
35457;DHT22;21575;51.538;-0.084;2022-10-31T16:18:34;16.20;99.90
35457;DHT22;21575;51.538;-0.084;2022-10-31T16:21:00;16.10;99.90
35457;DHT22;21575;51.538;-0.084;2022-10-31T16:23:27;16.10;99.90
35457;DHT22;21575;51.538;-0.084;2022-10-31T16:25:53;16.10;99.90
35457;DHT22;21575;51.538;-0.084;2022-10-31T16:28:21;16.10;99.90
35457;DHT22;21575;51.538;-0.084;2022-10-31T16:30:49;16.10;99.90
35457;DHT22;21575;51.538;-0.084;2022-10-31T16:33:35;16.00;99.90
35457;DHT22;21575;51.538;-0.084;2022-10-31T16:38:56;15.90;99.90
35457;DHT22;21575;51.538;-0.084;2022-10-31T16:41:23;15.90;99.90
35457;DHT22;21575;51.538;-0.084;2022-10-31T16:43:49;15.90;99.90
35457;DHT22;21575;51.538;-0.084;2022-10-31T16:46:22;15.90;99.90
35457;DHT22;21575;51.538;-0.084;2022-10-31T16:48:48;15.90;99.90
35457;DHT22;21575;51.538;-0.084;2022-10-31T16:51:13;15.90;99.90
35457;DHT22;21575;51.538;-0.084;2022-10-31T16:53:39;15.80;99.90
35457;DHT22;21575;51.538;-0.084;2022-10-31T16:56:05;15.80;99.90
35457;DHT22;21575;51.538;-0.084;2022-10-31T16:58:38;15.80;99.90
35457;DHT22;21575;51.538;-0.084;2022-10-31T17:01:05;15.80;99.90
35457;DHT22;21575;51.538;-0.084;2022-10-31T17:03:31;15.70;99.90
35457;DHT22;21575;51.538;-0.084;2022-10-31T17:05:57;15.70;99.90
35457;DHT22;21575;51.538;-0.084;2022-10-31T17:08:23;15.70;99.90
35457;DHT22;21575;51.538;-0.084;2022-10-31T17:10:54;15.70;99.90
35457;DHT22;21575;51.538;-0.084;2022-10-31T17:13:22;15.70;99.90
35457;DHT22;21575;51.538;-0.084;2022-10-31T17:15:53;15.70;99.90
35457;DHT22;21575;51.538;-0.084;2022-10-31T17:18:19;15.60;99.90
35457;DHT22;21575;51.538;-0.084;2022-10-31T17:20:46;15.60;99.90
35457;DHT22;21575;51.538;-0.084;2022-10-31T17:23:13;15.60;99.90
35457;DHT22;21575;51.538;-0.084;2022-10-31T17:25:40;15.60;99.90
35457;DHT22;21575;51.538;-0.084;2022-10-31T17:28:10;15.60;99.90
35457;DHT22;21575;51.538;-0.084;2022-10-31T17:30:37;15.60;99.90
35457;DHT22;21575;51.538;-0.084;2022-10-31T17:33:02;15.60;99.90
35457;DHT22;21575;51.538;-0.084;2022-10-31T17:35:28;15.60;99.90
35457;DHT22;21575;51.538;-0.084;2022-10-31T17:37:54;15.60;99.90
35457;DHT22;21575;51.538;-0.084;2022-10-31T17:40:20;15.60;99.90
35457;DHT22;21575;51.538;-0.084;2022-10-31T17:42:54;15.50;99.90
35457;DHT22;21575;51.538;-0.084;2022-10-31T17:45:21;15.50;99.90
35457;DHT22;21575;51.538;-0.084;2022-10-31T17:47:48;15.40;99.90
35457;DHT22;21575;51.538;-0.084;2022-10-31T17:50:19;15.40;99.90
35457;DHT22;21575;51.538;-0.084;2022-10-31T17:52:45;15.30;99.90
35457;DHT22;21575;51.538;-0.084;2022-10-31T17:55:12;15.30;99.90
35457;DHT22;21575;51.538;-0.084;2022-10-31T17:57:38;15.20;99.90